sensor_id;sensor_type;location;lat;lon;timestamp;temperature;humidity
56076;DHT22;41951;49.022;12.066;2022-12-20T00:00:11;-0.50;99.90
56076;DHT22;41951;49.022;12.066;2022-12-20T00:02:37;-0.60;99.90
56076;DHT22;41951;49.022;12.066;2022-12-20T00:05:03;0.20;99.90
56076;DHT22;41951;49.022;12.066;2022-12-20T00:07:29;-0.50;99.90
56076;DHT22;41951;49.022;12.066;2022-12-20T00:09:54;-0.50;99.90
56076;DHT22;41951;49.022;12.066;2022-12-20T00:12:20;-0.50;99.90
56076;DHT22;41951;49.022;12.066;2022-12-20T00:14:45;-0.40;99.90
56076;DHT22;41951;49.022;12.066;2022-12-20T00:17:11;-0.50;99.90
56076;DHT22;41951;49.022;12.066;2022-12-20T00:19:37;-0.50;99.90
56076;DHT22;41951;49.022;12.066;2022-12-20T00:22:02;-0.50;99.90
56076;DHT22;41951;49.022;12.066;2022-12-20T00:24:28;-0.50;99.90
56076;DHT22;41951;49.022;12.066;2022-12-20T00:26:53;-0.50;99.90
56076;DHT22;41951;49.022;12.066;2022-12-20T00:29:19;-0.40;99.90
56076;DHT22;41951;49.022;12.066;2022-12-20T00:31:45;-0.50;99.90
56076;DHT22;41951;49.022;12.066;2022-12-20T00:34:10;-0.50;99.90
56076;DHT22;41951;49.022;12.066;2022-12-20T00:36:38;-0.40;99.90
56076;DHT22;41951;49.022;12.066;2022-12-20T00:39:04;1.20;99.90
56076;DHT22;41951;49.022;12.066;2022-12-20T00:41:32;-0.50;99.90
56076;DHT22;41951;49.022;12.066;2022-12-20T00:43:58;-2.90;99.90
56076;DHT22;41951;49.022;12.066;2022-12-20T00:46:24;-0.40;99.90
56076;DHT22;41951;49.022;12.066;2022-12-20T00:48:50;-0.50;99.90
56076;DHT22;41951;49.022;12.066;2022-12-20T00:51:19;-0.80;99.90
56076;DHT22;41951;49.022;12.066;2022-12-20T00:53:46;-0.50;99.90
56076;DHT22;41951;49.022;12.066;2022-12-20T00:56:12;-0.40;99.90
56076;DHT22;41951;49.022;12.066;2022-12-20T00:58:40;-0.50;99.90
56076;DHT22;41951;49.022;12.066;2022-12-20T01:01:13;-0.50;99.90
56076;DHT22;41951;49.022;12.066;2022-12-20T01:03:39;-0.80;99.90
56076;DHT22;41951;49.022;12.066;2022-12-20T01:06:05;-0.50;99.90
56076;DHT22;41951;49.022;12.066;2022-12-20T01:08:30;-0.50;99.90
56076;DHT22;41951;49.022;12.066;2022-12-20T01:11:14;-0.50;99.90
56076;DHT22;41951;49.022;12.066;2022-12-20T01:13:43;-0.60;99.90
56076;DHT22;41951;49.022;12.066;2022-12-20T01:18:37;1.10;99.90
56076;DHT22;41951;49.022;12.066;2022-12-20T01:21:05;-0.60;99.90
56076;DHT22;41951;49.022;12.066;2022-12-20T01:23:31;-0.50;99.90
56076;DHT22;41951;49.022;12.066;2022-12-20T01:25:58;0.30;99.90
56076;DHT22;41951;49.022;12.066;2022-12-20T01:28:24;1.30;99.90
56076;DHT22;41951;49.022;12.066;2022-12-20T01:30:50;-0.50;99.90
56076;DHT22;41951;49.022;12.066;2022-12-20T01:33:16;-0.50;99.90
56076;DHT22;41951;49.022;12.066;2022-12-20T01:35:41;-0.50;99.90
56076;DHT22;41951;49.022;12.066;2022-12-20T01:38:07;0.50;99.90
56076;DHT22;41951;49.022;12.066;2022-12-20T01:40:33;-0.50;99.90
56076;DHT22;41951;49.022;12.066;2022-12-20T01:42:58;-0.50;99.90
56076;DHT22;41951;49.022;12.066;2022-12-20T01:45:28;-0.60;99.90
56076;DHT22;41951;49.022;12.066;2022-12-20T01:47:55;-1.20;99.90
56076;DHT22;41951;49.022;12.066;2022-12-20T01:50:21;-0.60;99.90
56076;DHT22;41951;49.022;12.066;2022-12-20T01:52:47;-0.50;99.90
56076;DHT22;41951;49.022;12.066;2022-12-20T01:55:23;-0.50;99.90
56076;DHT22;41951;49.022;12.066;2022-12-20T01:58:00;-0.50;99.90
56076;DHT22;41951;49.022;12.066;2022-12-20T02:03:13;-0.50;99.90
56076;DHT22;41951;49.022;12.066;2022-12-20T02:05:42;-0.50;99.90
56076;DHT22;41951;49.022;12.066;2022-12-20T02:08:10;-0.50;99.90
56076;DHT22;41951;49.022;12.066;2022-12-20T02:13:46;-0.50;99.90
56076;DHT22;41951;49.022;12.066;2022-12-20T02:16:22;-0.50;99.90
56076;DHT22;41951;49.022;12.066;2022-12-20T02:19:06;-0.50;99.90
56076;DHT22;41951;49.022;12.066;2022-12-20T02:21:54;-0.50;99.90
56076;DHT22;41951;49.022;12.066;2022-12-20T02:27:38;-0.50;99.90
56076;DHT22;41951;49.022;12.066;2022-12-20T02:32:46;-0.50;99.90
56076;DHT22;41951;49.022;12.066;2022-12-20T02:35:14;-0.50;99.90
56076;DHT22;41951;49.022;12.066;2022-12-20T02:37:54;-0.50;99.90
56076;DHT22;41951;49.022;12.066;2022-12-20T02:40:31;-0.50;99.90
56076;DHT22;41951;49.022;12.066;2022-12-20T02:43:03;-0.50;99.90
56076;DHT22;41951;49.022;12.066;2022-12-20T02:45:50;-0.50;99.90
56076;DHT22;41951;49.022;12.066;2022-12-20T02:48:17;-0.50;99.90
56076;DHT22;41951;49.022;12.066;2022-12-20T02:50:49;-0.60;99.90
56076;DHT22;41951;49.022;12.066;2022-12-20T02:53:16;-0.60;99.90
56076;DHT22;41951;49.022;12.066;2022-12-20T02:58:45;-0.60;99.90
56076;DHT22;41951;49.022;12.066;2022-12-20T03:01:20;-0.60;99.90
56076;DHT22;41951;49.022;12.066;2022-12-20T03:03:47;-0.60;99.90
56076;DHT22;41951;49.022;12.066;2022-12-20T03:06:14;-0.60;99.90
56076;DHT22;41951;49.022;12.066;2022-12-20T03:08:39;-0.70;99.90
56076;DHT22;41951;49.022;12.066;2022-12-20T03:11:05;-0.70;99.90
56076;DHT22;41951;49.022;12.066;2022-12-20T03:13:30;-0.70;99.90
56076;DHT22;41951;49.022;12.066;2022-12-20T03:15:56;-0.70;99.90
56076;DHT22;41951;49.022;12.066;2022-12-20T03:18:21;-0.60;99.90
56076;DHT22;41951;49.022;12.066;2022-12-20T03:20:47;-0.60;99.90
56076;DHT22;41951;49.022;12.066;2022-12-20T03:23:13;-0.60;99.90
56076;DHT22;41951;49.022;12.066;2022-12-20T03:25:38;-0.60;99.90
56076;DHT22;41951;49.022;12.066;2022-12-20T03:28:04;-0.70;99.90
56076;DHT22;41951;49.022;12.066;2022-12-20T03:30:29;-0.70;99.90
56076;DHT22;41951;49.022;12.066;2022-12-20T03:32:55;-0.60;99.90
56076;DHT22;41951;49.022;12.066;2022-12-20T03:35:21;-0.70;99.90
56076;DHT22;41951;49.022;12.066;2022-12-20T03:37:46;-0.60;99.90
56076;DHT22;41951;49.022;12.066;2022-12-20T03:40:12;-0.60;99.90
56076;DHT22;41951;49.022;12.066;2022-12-20T03:42:38;-0.70;99.90
56076;DHT22;41951;49.022;12.066;2022-12-20T03:45:04;-0.70;99.90
56076;DHT22;41951;49.022;12.066;2022-12-20T03:47:30;-0.70;99.90
56076;DHT22;41951;49.022;12.066;2022-12-20T03:49:56;-0.70;99.90
56076;DHT22;41951;49.022;12.066;2022-12-20T03:52:21;-0.70;99.90
56076;DHT22;41951;49.022;12.066;2022-12-20T03:54:47;-0.70;99.90
56076;DHT22;41951;49.022;12.066;2022-12-20T03:57:13;-0.70;99.90
56076;DHT22;41951;49.022;12.066;2022-12-20T03:59:38;-0.70;99.90
56076;DHT22;41951;49.022;12.066;2022-12-20T04:02:04;-0.70;99.90
56076;DHT22;41951;49.022;12.066;2022-12-20T04:04:30;-0.70;99.90
56076;DHT22;41951;49.022;12.066;2022-12-20T04:06:56;-0.60;99.90
56076;DHT22;41951;49.022;12.066;2022-12-20T04:09:21;-0.70;99.90
56076;DHT22;41951;49.022;12.066;2022-12-20T04:11:47;-0.60;99.90
56076;DHT22;41951;49.022;12.066;2022-12-20T04:14:13;-0.60;99.90
56076;DHT22;41951;49.022;12.066;2022-12-20T04:16:38;-0.60;99.90
56076;DHT22;41951;49.022;12.066;2022-12-20T04:19:04;-0.60;99.90
56076;DHT22;41951;49.022;12.066;2022-12-20T04:21:32;-0.60;99.90
56076;DHT22;41951;49.022;12.066;2022-12-20T04:23:59;-0.50;99.90
56076;DHT22;41951;49.022;12.066;2022-12-20T04:26:25;-0.50;99.90
56076;DHT22;41951;49.022;12.066;2022-12-20T04:28:51;-0.50;99.90
56076;DHT22;41951;49.022;12.066;2022-12-20T04:31:17;-0.50;99.90
56076;DHT22;41951;49.022;12.066;2022-12-20T04:33:44;-0.60;99.90
56076;DHT22;41951;49.022;12.066;2022-12-20T04:36:10;-0.60;99.90
56076;DHT22;41951;49.022;12.066;2022-12-20T04:38:36;-0.60;99.90
56076;DHT22;41951;49.022;12.066;2022-12-20T04:41:02;-0.60;99.90
56076;DHT22;41951;49.022;12.066;2022-12-20T04:43:27;-0.60;99.90
56076;DHT22;41951;49.022;12.066;2022-12-20T04:45:54;-0.60;99.90
56076;DHT22;41951;49.022;12.066;2022-12-20T04:48:25;-0.60;99.90
56076;DHT22;41951;49.022;12.066;2022-12-20T04:50:51;-0.60;99.90
56076;DHT22;41951;49.022;12.066;2022-12-20T04:53:18;-0.70;99.90
56076;DHT22;41951;49.022;12.066;2022-12-20T04:56:02;-0.70;99.90
56076;DHT22;41951;49.022;12.066;2022-12-20T04:58:28;-0.60;99.90
56076;DHT22;41951;49.022;12.066;2022-12-20T05:00:54;-0.70;99.90
56076;DHT22;41951;49.022;12.066;2022-12-20T05:03:21;-0.60;99.90
56076;DHT22;41951;49.022;12.066;2022-12-20T05:05:47;-0.60;99.90
56076;DHT22;41951;49.022;12.066;2022-12-20T05:08:13;-0.60;99.90
56076;DHT22;41951;49.022;12.066;2022-12-20T05:10:40;-0.50;99.90
56076;DHT22;41951;49.022;12.066;2022-12-20T05:13:06;-0.50;99.90
56076;DHT22;41951;49.022;12.066;2022-12-20T05:15:31;-0.50;99.90
56076;DHT22;41951;49.022;12.066;2022-12-20T05:17:57;-0.50;99.90
56076;DHT22;41951;49.022;12.066;2022-12-20T05:20:26;-0.50;99.90
56076;DHT22;41951;49.022;12.066;2022-12-20T05:22:52;-0.50;99.90
56076;DHT22;41951;49.022;12.066;2022-12-20T05:25:44;-0.60;99.90
56076;DHT22;41951;49.022;12.066;2022-12-20T05:28:29;-0.60;99.90
56076;DHT22;41951;49.022;12.066;2022-12-20T05:30:56;-0.50;99.90
56076;DHT22;41951;49.022;12.066;2022-12-20T05:33:21;-0.50;99.90
56076;DHT22;41951;49.022;12.066;2022-12-20T05:35:47;-0.50;99.90
56076;DHT22;41951;49.022;12.066;2022-12-20T05:38:13;-0.50;99.90
56076;DHT22;41951;49.022;12.066;2022-12-20T05:40:39;-0.50;99.90
56076;DHT22;41951;49.022;12.066;2022-12-20T05:43:05;-0.50;99.90
56076;DHT22;41951;49.022;12.066;2022-12-20T05:45:32;-0.50;99.90
56076;DHT22;41951;49.022;12.066;2022-12-20T05:47:58;-0.50;99.90
56076;DHT22;41951;49.022;12.066;2022-12-20T05:50:24;-0.50;99.90
56076;DHT22;41951;49.022;12.066;2022-12-20T05:52:53;-0.50;99.90
56076;DHT22;41951;49.022;12.066;2022-12-20T05:55:19;-0.50;99.90
56076;DHT22;41951;49.022;12.066;2022-12-20T05:57:44;-0.50;99.90
56076;DHT22;41951;49.022;12.066;2022-12-20T06:00:12;-0.50;99.90
56076;DHT22;41951;49.022;12.066;2022-12-20T06:02:39;-0.50;99.90
56076;DHT22;41951;49.022;12.066;2022-12-20T06:05:04;-0.50;99.90
56076;DHT22;41951;49.022;12.066;2022-12-20T06:07:30;-0.50;99.90
56076;DHT22;41951;49.022;12.066;2022-12-20T06:09:56;-0.60;99.90
56076;DHT22;41951;49.022;12.066;2022-12-20T06:12:22;-0.50;99.90
56076;DHT22;41951;49.022;12.066;2022-12-20T06:14:48;-0.50;99.90
56076;DHT22;41951;49.022;12.066;2022-12-20T06:17:14;-0.60;99.90
56076;DHT22;41951;49.022;12.066;2022-12-20T06:19:40;-0.50;99.90
56076;DHT22;41951;49.022;12.066;2022-12-20T06:22:09;-0.50;99.90
56076;DHT22;41951;49.022;12.066;2022-12-20T06:24:35;-0.50;99.90
56076;DHT22;41951;49.022;12.066;2022-12-20T06:27:01;-0.50;99.90
56076;DHT22;41951;49.022;12.066;2022-12-20T06:29:27;-0.50;99.90
56076;DHT22;41951;49.022;12.066;2022-12-20T06:31:53;-0.50;99.90
56076;DHT22;41951;49.022;12.066;2022-12-20T06:34:19;-0.50;99.90
56076;DHT22;41951;49.022;12.066;2022-12-20T06:36:45;-0.50;99.90
56076;DHT22;41951;49.022;12.066;2022-12-20T06:39:11;-0.50;99.90
56076;DHT22;41951;49.022;12.066;2022-12-20T06:41:38;-0.50;99.90
56076;DHT22;41951;49.022;12.066;2022-12-20T06:44:03;-0.40;99.90
56076;DHT22;41951;49.022;12.066;2022-12-20T06:46:29;-0.40;99.90
56076;DHT22;41951;49.022;12.066;2022-12-20T06:48:55;-0.50;99.90
56076;DHT22;41951;49.022;12.066;2022-12-20T06:51:21;-0.50;99.90
56076;DHT22;41951;49.022;12.066;2022-12-20T06:53:47;-0.50;99.90
56076;DHT22;41951;49.022;12.066;2022-12-20T06:56:12;-0.50;99.90
56076;DHT22;41951;49.022;12.066;2022-12-20T06:58:38;-0.50;99.90
56076;DHT22;41951;49.022;12.066;2022-12-20T07:01:04;-0.40;99.90
56076;DHT22;41951;49.022;12.066;2022-12-20T07:03:30;-0.40;99.90
56076;DHT22;41951;49.022;12.066;2022-12-20T07:05:55;-0.40;99.90
56076;DHT22;41951;49.022;12.066;2022-12-20T07:08:22;-0.40;99.90
56076;DHT22;41951;49.022;12.066;2022-12-20T07:10:48;-0.40;99.90
56076;DHT22;41951;49.022;12.066;2022-12-20T07:13:17;-0.30;99.90
56076;DHT22;41951;49.022;12.066;2022-12-20T07:15:42;-0.40;99.90
56076;DHT22;41951;49.022;12.066;2022-12-20T07:18:08;-0.30;99.90
56076;DHT22;41951;49.022;12.066;2022-12-20T07:20:34;-0.40;99.90
56076;DHT22;41951;49.022;12.066;2022-12-20T07:22:59;-0.40;99.90
56076;DHT22;41951;49.022;12.066;2022-12-20T07:25:25;-0.40;99.90
56076;DHT22;41951;49.022;12.066;2022-12-20T07:27:51;-0.40;99.90
56076;DHT22;41951;49.022;12.066;2022-12-20T07:30:17;-0.30;99.90
56076;DHT22;41951;49.022;12.066;2022-12-20T07:32:44;-0.30;99.90
56076;DHT22;41951;49.022;12.066;2022-12-20T07:35:11;-0.30;99.90
56076;DHT22;41951;49.022;12.066;2022-12-20T07:37:37;-0.30;99.90
56076;DHT22;41951;49.022;12.066;2022-12-20T07:40:04;-0.40;99.90
56076;DHT22;41951;49.022;12.066;2022-12-20T07:42:31;-0.40;99.90
56076;DHT22;41951;49.022;12.066;2022-12-20T07:44:56;-0.30;99.90
56076;DHT22;41951;49.022;12.066;2022-12-20T07:47:22;-0.30;99.90
56076;DHT22;41951;49.022;12.066;2022-12-20T07:49:48;-0.30;99.90
56076;DHT22;41951;49.022;12.066;2022-12-20T07:52:15;-0.30;99.90
56076;DHT22;41951;49.022;12.066;2022-12-20T07:54:46;-0.20;99.90
56076;DHT22;41951;49.022;12.066;2022-12-20T07:57:16;-0.30;99.90
56076;DHT22;41951;49.022;12.066;2022-12-20T07:59:47;-0.10;99.90
56076;DHT22;41951;49.022;12.066;2022-12-20T08:02:16;-0.10;99.90
56076;DHT22;41951;49.022;12.066;2022-12-20T08:04:44;-0.10;99.90
56076;DHT22;41951;49.022;12.066;2022-12-20T08:07:11;-0.10;99.90
56076;DHT22;41951;49.022;12.066;2022-12-20T08:09:40;-0.10;99.90
56076;DHT22;41951;49.022;12.066;2022-12-20T08:12:08;-0.10;99.90
56076;DHT22;41951;49.022;12.066;2022-12-20T08:14:35;-0.10;99.90
56076;DHT22;41951;49.022;12.066;2022-12-20T08:17:01;0.00;99.90
56076;DHT22;41951;49.022;12.066;2022-12-20T08:19:26;0.00;99.90
56076;DHT22;41951;49.022;12.066;2022-12-20T08:21:52;0.00;99.90
56076;DHT22;41951;49.022;12.066;2022-12-20T08:24:18;0.00;99.90
56076;DHT22;41951;49.022;12.066;2022-12-20T08:26:43;0.00;99.90
56076;DHT22;41951;49.022;12.066;2022-12-20T08:29:09;0.00;99.90
56076;DHT22;41951;49.022;12.066;2022-12-20T08:31:39;0.00;99.90
56076;DHT22;41951;49.022;12.066;2022-12-20T08:34:07;0.00;99.90
56076;DHT22;41951;49.022;12.066;2022-12-20T08:36:32;0.10;99.90
56076;DHT22;41951;49.022;12.066;2022-12-20T08:39:04;0.10;99.90
56076;DHT22;41951;49.022;12.066;2022-12-20T08:41:30;0.10;99.90
56076;DHT22;41951;49.022;12.066;2022-12-20T08:43:56;0.10;99.90
56076;DHT22;41951;49.022;12.066;2022-12-20T08:46:21;0.10;99.90
56076;DHT22;41951;49.022;12.066;2022-12-20T08:48:47;0.10;99.90
56076;DHT22;41951;49.022;12.066;2022-12-20T08:51:13;0.20;99.90
56076;DHT22;41951;49.022;12.066;2022-12-20T08:53:38;0.20;99.90
56076;DHT22;41951;49.022;12.066;2022-12-20T08:56:11;0.30;99.90
56076;DHT22;41951;49.022;12.066;2022-12-20T08:58:38;0.30;99.90
56076;DHT22;41951;49.022;12.066;2022-12-20T09:01:06;0.30;99.90
56076;DHT22;41951;49.022;12.066;2022-12-20T09:03:34;0.30;99.90
56076;DHT22;41951;49.022;12.066;2022-12-20T09:06:00;0.30;99.90
56076;DHT22;41951;49.022;12.066;2022-12-20T09:08:26;0.30;99.90
56076;DHT22;41951;49.022;12.066;2022-12-20T09:10:52;0.30;99.90
56076;DHT22;41951;49.022;12.066;2022-12-20T09:13:18;0.30;99.90
56076;DHT22;41951;49.022;12.066;2022-12-20T09:15:44;0.30;99.90
56076;DHT22;41951;49.022;12.066;2022-12-20T09:18:10;0.30;99.90
56076;DHT22;41951;49.022;12.066;2022-12-20T09:20:41;0.40;99.90
56076;DHT22;41951;49.022;12.066;2022-12-20T09:23:08;0.40;99.90
56076;DHT22;41951;49.022;12.066;2022-12-20T09:25:34;0.40;99.90
56076;DHT22;41951;49.022;12.066;2022-12-20T09:27:59;0.40;99.90
56076;DHT22;41951;49.022;12.066;2022-12-20T09:30:25;0.40;99.90
56076;DHT22;41951;49.022;12.066;2022-12-20T09:32:50;0.40;99.90
56076;DHT22;41951;49.022;12.066;2022-12-20T09:35:16;0.40;99.90
56076;DHT22;41951;49.022;12.066;2022-12-20T09:37:41;0.40;99.90
56076;DHT22;41951;49.022;12.066;2022-12-20T09:40:17;0.50;99.90
56076;DHT22;41951;49.022;12.066;2022-12-20T09:42:43;0.50;99.90
56076;DHT22;41951;49.022;12.066;2022-12-20T09:45:23;0.50;99.90
56076;DHT22;41951;49.022;12.066;2022-12-20T09:47:49;0.50;99.90
56076;DHT22;41951;49.022;12.066;2022-12-20T09:50:18;0.60;99.90
56076;DHT22;41951;49.022;12.066;2022-12-20T09:55:44;0.60;99.90
56076;DHT22;41951;49.022;12.066;2022-12-20T10:01:18;0.70;99.90
56076;DHT22;41951;49.022;12.066;2022-12-20T10:03:44;0.70;99.90
56076;DHT22;41951;49.022;12.066;2022-12-20T10:06:31;0.80;99.90
56076;DHT22;41951;49.022;12.066;2022-12-20T10:09:12;0.80;99.90
56076;DHT22;41951;49.022;12.066;2022-12-20T10:14:55;0.80;99.90
56076;DHT22;41951;49.022;12.066;2022-12-20T10:18:13;0.80;99.90
56076;DHT22;41951;49.022;12.066;2022-12-20T10:20:38;0.90;99.90
56076;DHT22;41951;49.022;12.066;2022-12-20T10:23:21;1.00;99.90
56076;DHT22;41951;49.022;12.066;2022-12-20T10:25:55;1.00;99.90
56076;DHT22;41951;49.022;12.066;2022-12-20T10:28:35;1.00;99.90
56076;DHT22;41951;49.022;12.066;2022-12-20T10:31:02;1.10;99.90
56076;DHT22;41951;49.022;12.066;2022-12-20T10:33:30;1.10;99.90
56076;DHT22;41951;49.022;12.066;2022-12-20T10:38:52;1.20;99.90
56076;DHT22;41951;49.022;12.066;2022-12-20T10:41:21;1.20;99.90
56076;DHT22;41951;49.022;12.066;2022-12-20T10:43:55;1.20;99.90
56076;DHT22;41951;49.022;12.066;2022-12-20T10:46:37;1.30;99.90
56076;DHT22;41951;49.022;12.066;2022-12-20T10:49:42;1.30;99.90
56076;DHT22;41951;49.022;12.066;2022-12-20T10:54:37;1.20;99.90
56076;DHT22;41951;49.022;12.066;2022-12-20T10:57:21;1.20;99.90
56076;DHT22;41951;49.022;12.066;2022-12-20T11:00:03;1.20;99.90
56076;DHT22;41951;49.022;12.066;2022-12-20T11:02:39;1.20;99.90
56076;DHT22;41951;49.022;12.066;2022-12-20T11:07:35;1.20;99.90
56076;DHT22;41951;49.022;12.066;2022-12-20T11:10:17;1.20;99.90
56076;DHT22;41951;49.022;12.066;2022-12-20T11:13:01;1.30;99.90
56076;DHT22;41951;49.022;12.066;2022-12-20T11:15:33;1.30;99.90
56076;DHT22;41951;49.022;12.066;2022-12-20T11:18:10;1.30;99.90
56076;DHT22;41951;49.022;12.066;2022-12-20T11:23:41;1.40;99.90
56076;DHT22;41951;49.022;12.066;2022-12-20T11:32:26;1.50;99.90
56076;DHT22;41951;49.022;12.066;2022-12-20T11:37:25;1.60;99.90
56076;DHT22;41951;49.022;12.066;2022-12-20T11:45:35;1.40;99.90
56076;DHT22;41951;49.022;12.066;2022-12-20T11:48:29;1.40;99.90
56076;DHT22;41951;49.022;12.066;2022-12-20T11:53:49;1.40;99.90
56076;DHT22;41951;49.022;12.066;2022-12-20T11:56:33;1.40;99.90
56076;DHT22;41951;49.022;12.066;2022-12-20T11:59:17;1.40;99.90
56076;DHT22;41951;49.022;12.066;2022-12-20T12:02:12;1.50;99.90
56076;DHT22;41951;49.022;12.066;2022-12-20T12:04:44;1.50;99.90
56076;DHT22;41951;49.022;12.066;2022-12-20T12:07:30;1.50;99.90
56076;DHT22;41951;49.022;12.066;2022-12-20T12:10:20;1.60;99.90
56076;DHT22;41951;49.022;12.066;2022-12-20T12:12:55;1.70;99.90
56076;DHT22;41951;49.022;12.066;2022-12-20T12:15:36;1.60;99.90
56076;DHT22;41951;49.022;12.066;2022-12-20T12:18:23;1.70;99.90
56076;DHT22;41951;49.022;12.066;2022-12-20T12:26:06;1.60;99.90
56076;DHT22;41951;49.022;12.066;2022-12-20T12:28:35;1.60;99.90
56076;DHT22;41951;49.022;12.066;2022-12-20T12:31:08;1.60;99.90
56076;DHT22;41951;49.022;12.066;2022-12-20T12:34:01;1.60;99.90
56076;DHT22;41951;49.022;12.066;2022-12-20T12:45:04;1.70;99.90
56076;DHT22;41951;49.022;12.066;2022-12-20T12:50:05;1.70;99.90
56076;DHT22;41951;49.022;12.066;2022-12-20T12:52:47;1.70;99.90
56076;DHT22;41951;49.022;12.066;2022-12-20T12:58:32;1.70;99.90
56076;DHT22;41951;49.022;12.066;2022-12-20T13:01:12;1.70;99.90
56076;DHT22;41951;49.022;12.066;2022-12-20T13:21:55;1.60;99.90
56076;DHT22;41951;49.022;12.066;2022-12-20T13:24:54;1.70;99.90
56076;DHT22;41951;49.022;12.066;2022-12-20T13:27:26;1.60;99.90
56076;DHT22;41951;49.022;12.066;2022-12-20T13:42:52;1.60;99.90
56076;DHT22;41951;49.022;12.066;2022-12-20T13:45:19;1.60;99.90
56076;DHT22;41951;49.022;12.066;2022-12-20T13:47:49;1.60;99.90
56076;DHT22;41951;49.022;12.066;2022-12-20T13:50:27;1.50;99.90
56076;DHT22;41951;49.022;12.066;2022-12-20T13:52:54;1.60;99.90
56076;DHT22;41951;49.022;12.066;2022-12-20T13:55:34;1.60;99.90
56076;DHT22;41951;49.022;12.066;2022-12-20T13:58:04;1.60;99.90
56076;DHT22;41951;49.022;12.066;2022-12-20T14:00:30;1.60;99.90
56076;DHT22;41951;49.022;12.066;2022-12-20T14:02:56;1.50;99.90
56076;DHT22;41951;49.022;12.066;2022-12-20T14:05:24;1.50;99.90
56076;DHT22;41951;49.022;12.066;2022-12-20T14:07:59;1.50;99.90
56076;DHT22;41951;49.022;12.066;2022-12-20T14:10:28;1.50;99.90
56076;DHT22;41951;49.022;12.066;2022-12-20T14:12:55;2.40;99.90
56076;DHT22;41951;49.022;12.066;2022-12-20T14:15:28;1.40;99.90
56076;DHT22;41951;49.022;12.066;2022-12-20T14:17:55;1.40;99.90
56076;DHT22;41951;49.022;12.066;2022-12-20T14:20:29;1.30;99.90
56076;DHT22;41951;49.022;12.066;2022-12-20T14:23:10;1.30;99.90
56076;DHT22;41951;49.022;12.066;2022-12-20T14:30:51;1.20;99.90
56076;DHT22;41951;49.022;12.066;2022-12-20T14:33:19;1.20;99.90
56076;DHT22;41951;49.022;12.066;2022-12-20T14:35:49;1.30;99.90
56076;DHT22;41951;49.022;12.066;2022-12-20T14:38:27;1.30;99.90
56076;DHT22;41951;49.022;12.066;2022-12-20T14:40:54;1.30;99.90
56076;DHT22;41951;49.022;12.066;2022-12-20T14:43:31;1.40;99.90
56076;DHT22;41951;49.022;12.066;2022-12-20T14:46:16;1.30;99.90
56076;DHT22;41951;49.022;12.066;2022-12-20T14:48:42;1.30;99.90
56076;DHT22;41951;49.022;12.066;2022-12-20T14:51:08;1.40;99.90
56076;DHT22;41951;49.022;12.066;2022-12-20T14:53:34;1.40;99.90
56076;DHT22;41951;49.022;12.066;2022-12-20T14:56:01;1.40;99.90
56076;DHT22;41951;49.022;12.066;2022-12-20T14:58:30;1.40;99.90
56076;DHT22;41951;49.022;12.066;2022-12-20T15:03:22;1.30;99.90
56076;DHT22;41951;49.022;12.066;2022-12-20T15:05:53;1.30;99.90
56076;DHT22;41951;49.022;12.066;2022-12-20T15:08:30;1.30;99.90
56076;DHT22;41951;49.022;12.066;2022-12-20T15:13:43;1.30;99.90
56076;DHT22;41951;49.022;12.066;2022-12-20T15:16:21;1.30;99.90
56076;DHT22;41951;49.022;12.066;2022-12-20T15:18:47;1.30;99.90
56076;DHT22;41951;49.022;12.066;2022-12-20T15:21:33;1.20;99.90
56076;DHT22;41951;49.022;12.066;2022-12-20T15:24:07;1.30;99.90
56076;DHT22;41951;49.022;12.066;2022-12-20T15:26:35;1.30;99.90
56076;DHT22;41951;49.022;12.066;2022-12-20T15:29:01;1.30;99.90
56076;DHT22;41951;49.022;12.066;2022-12-20T15:31:27;1.30;99.90
56076;DHT22;41951;49.022;12.066;2022-12-20T15:33:54;2.60;99.90
56076;DHT22;41951;49.022;12.066;2022-12-20T15:36:27;1.20;99.90
56076;DHT22;41951;49.022;12.066;2022-12-20T15:38:54;1.30;99.90
56076;DHT22;41951;49.022;12.066;2022-12-20T15:41:33;1.30;99.90
56076;DHT22;41951;49.022;12.066;2022-12-20T15:44:04;1.40;99.90
56076;DHT22;41951;49.022;12.066;2022-12-20T15:46:31;1.20;99.90
56076;DHT22;41951;49.022;12.066;2022-12-20T15:48:56;1.20;99.90
56076;DHT22;41951;49.022;12.066;2022-12-20T15:51:34;1.20;99.90
56076;DHT22;41951;49.022;12.066;2022-12-20T15:54:02;4.30;99.90
56076;DHT22;41951;49.022;12.066;2022-12-20T15:56:28;1.10;99.90
56076;DHT22;41951;49.022;12.066;2022-12-20T15:58:55;1.10;99.90
56076;DHT22;41951;49.022;12.066;2022-12-20T16:01:35;1.10;99.90
56076;DHT22;41951;49.022;12.066;2022-12-20T16:04:02;1.10;99.90
56076;DHT22;41951;49.022;12.066;2022-12-20T16:06:27;1.10;99.90
56076;DHT22;41951;49.022;12.066;2022-12-20T16:08:53;1.20;99.90
56076;DHT22;41951;49.022;12.066;2022-12-20T16:11:20;1.10;99.90
56076;DHT22;41951;49.022;12.066;2022-12-20T16:13:46;1.10;99.90
56076;DHT22;41951;49.022;12.066;2022-12-20T16:16:16;1.20;99.90
56076;DHT22;41951;49.022;12.066;2022-12-20T16:18:43;2.60;99.90
56076;DHT22;41951;49.022;12.066;2022-12-20T16:21:17;1.10;99.90
56076;DHT22;41951;49.022;12.066;2022-12-20T16:23:44;1.10;99.90
56076;DHT22;41951;49.022;12.066;2022-12-20T16:26:14;3.10;99.90
56076;DHT22;41951;49.022;12.066;2022-12-20T16:28:41;1.10;99.90
56076;DHT22;41951;49.022;12.066;2022-12-20T16:33:48;1.10;99.90
56076;DHT22;41951;49.022;12.066;2022-12-20T16:36:14;2.40;99.90
56076;DHT22;41951;49.022;12.066;2022-12-20T16:38:40;1.50;99.90
56076;DHT22;41951;49.022;12.066;2022-12-20T16:41:17;1.10;99.90
56076;DHT22;41951;49.022;12.066;2022-12-20T16:43:44;1.10;99.90
56076;DHT22;41951;49.022;12.066;2022-12-20T16:46:12;1.10;99.90
56076;DHT22;41951;49.022;12.066;2022-12-20T16:48:39;1.10;99.90
56076;DHT22;41951;49.022;12.066;2022-12-20T16:54:15;1.20;99.90
56076;DHT22;41951;49.022;12.066;2022-12-20T16:56:41;1.20;99.90
56076;DHT22;41951;49.022;12.066;2022-12-20T16:59:08;1.20;99.90
56076;DHT22;41951;49.022;12.066;2022-12-20T17:01:36;1.20;99.90
56076;DHT22;41951;49.022;12.066;2022-12-20T17:04:02;1.10;99.90
56076;DHT22;41951;49.022;12.066;2022-12-20T17:06:28;1.20;99.90
56076;DHT22;41951;49.022;12.066;2022-12-20T17:08:54;0.90;99.90
56076;DHT22;41951;49.022;12.066;2022-12-20T17:11:29;1.20;99.90
56076;DHT22;41951;49.022;12.066;2022-12-20T17:13:59;1.20;99.90
56076;DHT22;41951;49.022;12.066;2022-12-20T17:16:26;1.20;99.90
56076;DHT22;41951;49.022;12.066;2022-12-20T17:18:53;1.20;99.90
56076;DHT22;41951;49.022;12.066;2022-12-20T17:21:21;1.20;99.90
56076;DHT22;41951;49.022;12.066;2022-12-20T17:23:48;1.20;99.90
56076;DHT22;41951;49.022;12.066;2022-12-20T17:26:17;1.20;99.90
56076;DHT22;41951;49.022;12.066;2022-12-20T17:28:44;1.20;99.90
56076;DHT22;41951;49.022;12.066;2022-12-20T17:31:27;1.20;99.90
56076;DHT22;41951;49.022;12.066;2022-12-20T17:33:54;1.20;99.90
56076;DHT22;41951;49.022;12.066;2022-12-20T17:36:20;1.10;99.90